Lake Harbour, Canada
Current Conditions -  °F | °C
As of 2:00 PM on Friday 28 Nov 2014 (Local Time) from CYFB Reporting Station
Scattered Clouds Scattered Clouds  
Wind Chill: -6°   Ceiling: Unl
Heat Index:   Visibility: 15mi
Dew Point: -2°   Wind: 6mph
Humidity: 72%   Direction: 340°NNW
Pressure: 29.51"   Gusts: NA
Location:  62.85°N, 69.89°W
Report Text: CYFB 281900Z 34005KT 15SM FEW020 SCT040 M15/M19 A2951 RMK SC1SC2 SLP995
Loading
Personal Weather Stations






























Interactive Weather Map New forecast layout! Learn more

10-Day Weather Forecast

Advertisements
Track Severe Weather on mobile